Time;durP1;ratioP1;P1;durP2;ratioP2;P2;SDS_P1;SDS_P2;PMS_P1;PMS_P2;Temp;Humidity;BMP_temperature;BMP_pressure;BME280_temperature;BME280_humidity;BME280_pressure;Samples;Min_cycle;Max_cycle;Signal;HPM_P1;HPM_P2
2022/08/19 00:01:56;;;;;;;15.07;13.60;;;21.40;99.90;;;;;;5087795;28;20746;-81
2022/08/19 00:04:27;;;;;;;13.43;12.23;;;21.40;99.90;;;;;;5091913;28;20639;-81
2022/08/19 00:06:54;;;;;;;14.40;13.33;;;21.40;99.90;;;;;;5088052;28;20672;-81
2022/08/19 00:09:22;;;;;;;14.63;13.47;;;21.50;99.90;;;;;;5091105;28;20987;-81
2022/08/19 00:11:51;;;;;;;14.93;13.70;;;21.50;99.90;;;;;;5090682;28;20636;-81
2022/08/19 00:14:20;;;;;;;15.17;14.03;;;21.50;99.90;;;;;;5085078;28;20632;-81
2022/08/19 00:16:48;;;;;;;15.63;14.03;;;21.50;99.90;;;;;;5087907;28;20770;-80
2022/08/19 00:19:15;;;;;;;17.03;15.67;;;21.50;99.90;;;;;;5087680;28;21034;-80
2022/08/19 00:21:43;;;;;;;15.30;14.20;;;21.40;99.90;;;;;;5086411;28;21528;-81
2022/08/19 00:24:12;;;;;;;16.40;15.30;;;21.40;99.90;;;;;;5091498;28;20681;-81
2022/08/19 00:26:39;;;;;;;16.33;15.17;;;21.30;99.90;;;;;;5090463;28;20644;-81
2022/08/19 00:29:09;;;;;;;15.73;14.53;;;21.20;99.90;;;;;;5089298;28;20628;-80
2022/08/19 00:31:36;;;;;;;13.80;12.40;;;21.30;99.90;;;;;;5092675;28;20619;-80
2022/08/19 00:34:03;;;;;;;16.10;14.80;;;21.20;99.90;;;;;;5089542;28;21028;-81
2022/08/19 00:36:32;;;;;;;17.27;15.97;;;21.20;99.90;;;;;;5089339;28;20660;-81
2022/08/19 00:38:59;;;;;;;17.00;15.60;;;21.20;99.90;;;;;;5091771;28;20739;-81
2022/08/19 00:41:26;;;;;;;14.87;13.67;;;21.20;99.90;;;;;;5086196;28;20667;-81
2022/08/19 00:44:02;;;;;;;15.60;14.20;;;21.20;99.90;;;;;;5087690;28;20619;-81
2022/08/19 00:46:31;;;;;;;17.17;15.87;;;21.10;99.90;;;;;;5091747;28;20651;-81
2022/08/19 00:48:58;;;;;;;15.77;14.67;;;21.10;99.90;;;;;;5088033;28;20624;-82
2022/08/19 00:51:26;;;;;;;16.20;14.70;;;21.10;99.90;;;;;;5086835;28;21077;-81
2022/08/19 00:53:54;;;;;;;15.93;14.73;;;21.10;99.90;;;;;;5088100;28;20623;-81
2022/08/19 00:56:21;;;;;;;16.60;15.10;;;21.10;99.90;;;;;;5086473;28;20643;-81
2022/08/19 00:58:49;;;;;;;15.87;14.77;;;21.10;99.90;;;;;;5090325;28;20631;-81
2022/08/19 01:01:15;;;;;;;15.57;14.37;;;21.00;99.90;;;;;;5090422;28;20662;-79
2022/08/19 01:03:44;;;;;;;14.97;13.40;;;21.00;99.90;;;;;;5086848;28;20627;-81
2022/08/19 01:06:10;;;;;;;15.17;13.90;;;21.00;99.90;;;;;;5089575;28;21293;-81
2022/08/19 01:08:37;;;;;;;17.03;15.60;;;21.00;99.90;;;;;;5087872;28;20995;-81
2022/08/19 01:11:05;;;;;;;16.23;15.07;;;20.90;99.90;;;;;;5091338;28;20615;-81
2022/08/19 01:13:34;;;;;;;18.40;16.93;;;20.90;99.90;;;;;;5089070;28;20639;-81
2022/08/19 01:16:04;;;;;;;16.60;15.30;;;21.00;99.90;;;;;;5085856;28;20639;-81
2022/08/19 01:18:32;;;;;;;16.80;15.40;;;21.00;99.90;;;;;;5089911;28;21072;-79
2022/08/19 01:21:06;;;;;;;16.47;15.20;;;20.90;99.90;;;;;;5089574;28;20663;-80
2022/08/19 01:23:43;;;;;;;15.53;14.30;;;20.90;99.90;;;;;;5087293;28;20631;-80
2022/08/19 01:26:12;;;;;;;12.93;11.80;;;20.90;99.90;;;;;;5088816;28;20643;-81
2022/08/19 01:28:39;;;;;;;13.00;11.90;;;20.90;99.90;;;;;;5087351;28;20624;-81
2022/08/19 01:31:07;;;;;;;14.83;13.63;;;20.90;99.90;;;;;;5090533;28;20624;-81
2022/08/19 01:33:34;;;;;;;13.00;11.73;;;20.90;99.90;;;;;;5086004;28;20680;-81
2022/08/19 01:36:10;;;;;;;16.97;15.53;;;20.90;99.90;;;;;;5086437;28;21043;-81
2022/08/19 01:38:42;;;;;;;14.13;12.73;;;20.90;99.90;;;;;;5094046;28;21238;-81
2022/08/19 01:41:09;;;;;;;13.60;12.43;;;20.90;99.90;;;;;;5089989;28;20656;-81
2022/08/19 01:43:37;;;;;;;16.10;14.80;;;20.90;99.90;;;;;;5087469;28;20628;-81
2022/08/19 01:46:05;;;;;;;16.33;14.67;;;20.90;99.90;;;;;;5091477;28;20639;-80
2022/08/19 01:48:35;;;;;;;14.73;13.33;;;20.90;99.90;;;;;;5087941;28;20639;-81
2022/08/19 01:51:02;;;;;;;15.13;13.83;;;20.90;99.90;;;;;;5083438;28;20620;-81
2022/08/19 01:53:30;;;;;;;17.07;15.67;;;20.90;99.90;;;;;;5093536;28;20705;-80
2022/08/19 01:55:58;;;;;;;14.07;12.63;;;20.90;99.90;;;;;;5092095;28;21231;-81
2022/08/19 01:58:30;;;;;;;13.63;12.23;;;20.90;99.90;;;;;;5090712;28;20642;-80
2022/08/19 02:00:57;;;;;;;15.50;14.20;;;20.90;99.90;;;;;;5095379;28;20719;-81
2022/08/19 02:03:24;;;;;;;16.53;15.30;;;20.80;99.90;;;;;;5089790;28;20628;-80
2022/08/19 02:05:56;;;;;;;14.97;13.57;;;20.90;99.90;;;;;;5092736;28;21249;-81
2022/08/19 02:08:23;;;;;;;14.50;13.00;;;20.90;99.90;;;;;;5092155;28;20635;-80
2022/08/19 02:10:50;;;;;;;14.60;13.30;;;20.90;99.90;;;;;;5092502;28;20717;-80
2022/08/19 02:13:18;;;;;;;16.60;15.10;;;20.80;99.90;;;;;;5090710;28;20636;-81
2022/08/19 02:15:45;;;;;;;17.37;15.87;;;20.80;99.90;;;;;;5088539;28;20662;-79
2022/08/19 02:18:12;;;;;;;16.87;15.57;;;20.80;99.90;;;;;;5090459;28;21236;-81
2022/08/19 02:20:40;;;;;;;16.93;15.73;;;20.80;99.90;;;;;;5090643;28;20656;-81
2022/08/19 02:23:08;;;;;;;17.73;16.33;;;20.80;99.90;;;;;;5091004;28;20635;-81
2022/08/19 02:25:35;;;;;;;17.20;15.87;;;20.80;99.90;;;;;;5093525;28;21152;-80
2022/08/19 02:28:02;;;;;;;18.77;16.97;;;20.80;99.90;;;;;;5089804;28;21174;-80
2022/08/19 02:30:31;;;;;;;17.83;16.33;;;20.80;99.90;;;;;;5096861;28;20643;-80
2022/08/19 02:32:58;;;;;;;14.10;12.80;;;20.80;99.90;;;;;;5092514;28;20635;-81
2022/08/19 02:35:25;;;;;;;17.80;15.87;;;20.70;99.90;;;;;;5091300;28;20656;-81
2022/08/19 02:40:37;;;;;;;17.67;15.80;;;20.70;99.90;;;;;;5086704;28;20650;-80
2022/08/19 02:43:05;;;;;;;16.50;14.90;;;20.70;99.90;;;;;;5096165;28;21030;-79
2022/08/19 02:45:34;;;;;;;17.67;15.87;;;20.70;99.90;;;;;;5091604;28;20731;-80
2022/08/19 02:48:01;;;;;;;21.03;19.33;;;20.70;99.90;;;;;;5081765;28;20648;-81
2022/08/19 02:50:27;;;;;;;20.23;18.63;;;20.60;99.90;;;;;;5086823;28;20624;-81
2022/08/19 02:52:54;;;;;;;21.90;20.00;;;20.60;99.90;;;;;;5093133;28;20646;-81
2022/08/19 02:55:21;;;;;;;22.37;20.47;;;20.60;99.90;;;;;;5089327;28;20631;-80
2022/08/19 02:57:48;;;;;;;21.57;19.70;;;20.50;99.90;;;;;;5093426;28;20647;-80
2022/08/19 03:00:16;;;;;;;23.23;21.33;;;20.50;99.90;;;;;;5092027;28;20655;-81
2022/08/19 03:02:44;;;;;;;21.43;19.57;;;20.50;99.90;;;;;;5090529;28;21059;-80
2022/08/19 03:05:11;;;;;;;22.03;20.17;;;20.40;99.90;;;;;;5088750;28;20689;-81
2022/08/19 03:07:38;;;;;;;20.63;18.90;;;20.40;99.90;;;;;;5087032;28;21302;-80
2022/08/19 03:10:06;;;;;;;21.70;19.80;;;20.40;99.90;;;;;;5092173;28;21241;-80
2022/08/19 03:12:37;;;;;;;20.97;18.80;;;20.40;99.90;;;;;;5092076;28;20612;-81
2022/08/19 03:15:04;;;;;;;21.80;19.90;;;20.40;99.90;;;;;;5088638;28;21220;-80
2022/08/19 03:17:31;;;;;;;21.50;19.30;;;20.40;99.90;;;;;;5085262;28;21392;-80
2022/08/19 03:20:00;;;;;;;24.03;21.83;;;20.40;99.90;;;;;;5091235;28;20635;-80
2022/08/19 03:22:27;;;;;;;22.80;20.53;;;20.30;99.90;;;;;;5088617;28;20731;-80
2022/08/19 03:24:54;;;;;;;23.53;21.60;;;20.30;99.90;;;;;;5091872;28;21258;-80
2022/08/19 03:27:21;;;;;;;23.17;21.20;;;20.30;99.90;;;;;;5092045;28;21083;-80
2022/08/19 03:29:47;;;;;;;23.90;21.87;;;20.30;99.90;;;;;;5089174;28;20628;-81
2022/08/19 03:32:14;;;;;;;22.37;20.47;;;20.20;99.90;;;;;;5094339;28;20627;-80
2022/08/19 03:34:41;;;;;;;24.13;22.07;;;20.20;99.90;;;;;;5088334;28;20639;-81
2022/08/19 03:37:12;;;;;;;24.60;22.67;;;20.20;99.90;;;;;;5091784;28;21021;-80
2022/08/19 03:39:41;;;;;;;24.10;22.20;;;20.20;99.90;;;;;;5087592;28;20627;-81
2022/08/19 03:42:09;;;;;;;24.50;22.50;;;20.20;99.90;;;;;;5089193;27;21056;-81
2022/08/19 03:44:37;;;;;;;24.43;22.30;;;20.10;99.90;;;;;;5092437;28;20619;-80
2022/08/19 03:47:05;;;;;;;23.57;21.60;;;20.20;99.90;;;;;;5087647;28;21003;-80
2022/08/19 03:49:34;;;;;;;24.33;22.23;;;20.10;99.90;;;;;;5089657;28;20627;-80
2022/08/19 03:52:01;;;;;;;24.07;22.10;;;20.10;99.90;;;;;;5091285;28;21210;-80
2022/08/19 03:54:30;;;;;;;24.40;22.40;;;20.10;99.90;;;;;;5084391;28;20645;-81
2022/08/19 03:56:57;;;;;;;24.67;22.60;;;20.10;99.90;;;;;;5087883;28;20658;-81
2022/08/19 03:59:28;;;;;;;23.03;21.13;;;20.10;99.90;;;;;;5093687;28;20622;-81
2022/08/19 04:01:56;;;;;;;24.90;22.80;;;20.00;99.90;;;;;;5086789;28;20682;-81
2022/08/19 04:04:24;;;;;;;25.27;23.07;;;20.00;99.90;;;;;;5089801;28;20635;-80
2022/08/19 04:06:51;;;;;;;25.07;22.97;;;20.00;99.90;;;;;;5089335;28;20689;-80
2022/08/19 04:09:19;;;;;;;25.90;23.83;;;20.00;99.90;;;;;;5088899;28;20719;-81
2022/08/19 04:11:50;;;;;;;24.27;22.30;;;20.00;99.90;;;;;;5091637;28;20604;-80
2022/08/19 04:14:20;;;;;;;21.40;19.40;;;20.00;99.90;;;;;;5088960;28;20623;-80
2022/08/19 04:16:48;;;;;;;22.27;20.33;;;20.00;99.90;;;;;;5087419;28;21060;-81
2022/08/19 04:19:16;;;;;;;26.50;23.90;;;20.00;99.90;;;;;;5087568;28;21309;-81
2022/08/19 04:21:45;;;;;;;22.47;20.17;;;20.00;99.90;;;;;;5089460;28;21417;-81
2022/08/19 04:24:12;;;;;;;21.67;19.50;;;19.90;99.90;;;;;;5088704;28;20628;-81
2022/08/19 04:26:39;;;;;;;23.60;21.60;;;20.00;99.90;;;;;;5091285;28;20648;-81
2022/08/19 04:29:10;;;;;;;21.57;19.37;;;20.00;99.90;;;;;;5088720;28;20697;-81
2022/08/19 04:31:36;;;;;;;25.17;22.87;;;20.00;99.90;;;;;;5088981;28;21161;-81
2022/08/19 04:34:06;;;;;;;26.47;24.00;;;19.90;99.90;;;;;;5086848;28;20613;-81
2022/08/19 04:36:36;;;;;;;27.10;24.67;;;19.90;99.90;;;;;;5086551;28;20679;-80
2022/08/19 04:39:06;;;;;;;22.53;20.20;;;19.90;99.90;;;;;;5090435;28;20627;-80
2022/08/19 04:44:20;;;;;;;28.83;26.53;;;19.90;99.90;;;;;;5089056;28;20750;-81
2022/08/19 04:46:47;;;;;;;26.63;24.43;;;19.90;99.90;;;;;;5087780;28;20648;-81
2022/08/19 04:49:16;;;;;;;26.93;24.53;;;19.80;99.90;;;;;;5083401;28;20701;-81
2022/08/19 04:51:46;;;;;;;25.87;23.63;;;19.80;99.90;;;;;;5089278;28;21060;-81
2022/08/19 04:54:14;;;;;;;28.07;25.63;;;19.90;99.90;;;;;;5088789;28;20628;-81
2022/08/19 04:56:41;;;;;;;28.87;26.47;;;19.80;99.90;;;;;;5083026;28;20762;-82
2022/08/19 04:59:08;;;;;;;26.17;24.07;;;19.80;99.90;;;;;;5086557;28;21264;-81
2022/08/19 05:01:36;;;;;;;27.00;24.60;;;19.90;99.90;;;;;;5086371;28;20667;-81
2022/08/19 05:04:07;;;;;;;26.17;23.87;;;19.90;99.90;;;;;;5084327;28;20624;-81
2022/08/19 05:06:35;;;;;;;28.20;25.97;;;19.90;99.90;;;;;;5087798;28;20669;-81
2022/08/19 05:09:02;;;;;;;25.23;23.13;;;19.90;99.90;;;;;;5087306;28;20628;-81
2022/08/19 05:11:33;;;;;;;25.93;23.73;;;19.90;99.90;;;;;;5090412;28;21188;-81
2022/08/19 05:13:59;;;;;;;25.27;23.20;;;19.90;99.90;;;;;;5088384;28;20608;-80
2022/08/19 05:16:27;;;;;;;27.57;25.17;;;19.90;99.90;;;;;;5086343;28;20667;-81
2022/08/19 05:24:26;;;;;;;27.73;25.50;;;20.00;99.90;;;;;;5088551;28;21096;-81
2022/08/19 05:26:56;;;;;;;26.83;24.67;;;20.00;99.90;;;;;;5091659;28;20650;-81
2022/08/19 05:29:25;;;;;;;29.97;27.30;;;20.00;99.90;;;;;;5091070;28;20955;-81
2022/08/19 05:31:53;;;;;;;28.60;25.93;;;20.00;99.90;;;;;;5096186;28;20625;-81
2022/08/19 05:34:24;;;;;;;25.20;23.00;;;20.00;99.90;;;;;;5090360;28;20616;-81
2022/08/19 05:36:55;;;;;;;28.83;26.43;;;20.00;99.90;;;;;;5090509;28;20646;-81
2022/08/19 05:39:22;;;;;;;27.37;25.23;;;20.00;99.90;;;;;;5093062;28;20616;-81
2022/08/19 05:41:52;;;;;;;27.13;24.90;;;20.00;99.90;;;;;;5093115;28;21073;-81
2022/08/19 05:44:20;;;;;;;31.67;28.53;;;20.00;99.90;;;;;;5082388;28;20735;-81
2022/08/19 05:46:47;;;;;;;27.03;24.80;;;20.00;99.90;;;;;;5085093;28;20643;-80
2022/08/19 05:49:16;;;;;;;24.47;22.30;;;20.00;99.90;;;;;;5084876;28;20636;-79
2022/08/19 05:51:47;;;;;;;24.47;22.17;;;20.00;99.90;;;;;;5090521;28;20660;-80
2022/08/19 05:54:14;;;;;;;23.63;21.23;;;20.00;99.90;;;;;;5087422;28;20632;-79
2022/08/19 05:56:41;;;;;;;21.70;19.60;;;20.00;99.90;;;;;;5088418;28;20723;-80
2022/08/19 05:59:11;;;;;;;20.70;18.70;;;20.00;99.90;;;;;;5091107;28;20639;-81
2022/08/19 06:01:39;;;;;;;21.73;19.00;;;20.00;99.90;;;;;;5092838;28;20671;-81
2022/08/19 06:04:06;;;;;;;25.63;23.23;;;20.00;99.90;;;;;;5091783;28;20643;-81
2022/08/19 06:06:34;;;;;;;27.30;24.97;;;20.00;99.90;;;;;;5089963;28;20632;-80
2022/08/19 06:09:03;;;;;;;27.90;25.60;;;20.10;99.90;;;;;;5091500;28;20624;-81
2022/08/19 06:11:36;;;;;;;22.80;20.40;;;20.10;99.90;;;;;;5089181;28;21229;-79
2022/08/19 06:14:08;;;;;;;24.47;22.07;;;20.10;99.90;;;;;;5089331;28;21049;-80
2022/08/19 06:16:38;;;;;;;24.33;21.83;;;20.10;99.90;;;;;;5087756;28;20688;-81
2022/08/19 06:19:08;;;;;;;24.37;22.07;;;20.00;99.90;;;;;;5093061;28;20632;-80
2022/08/19 06:21:37;;;;;;;23.57;21.27;;;20.00;99.90;;;;;;5088846;28;20736;-80
2022/08/19 06:24:09;;;;;;;25.50;21.50;;;20.00;99.90;;;;;;5093624;28;20611;-80
2022/08/19 06:26:38;;;;;;;22.27;19.97;;;20.00;99.90;;;;;;5088362;28;20616;-80
2022/08/19 06:29:06;;;;;;;24.80;22.57;;;20.00;99.90;;;;;;5084349;28;20620;-81
2022/08/19 06:31:35;;;;;;;24.27;22.00;;;20.10;99.90;;;;;;5091731;28;20648;-80
2022/08/19 06:34:03;;;;;;;24.43;21.70;;;20.10;99.90;;;;;;5090831;28;20722;-80
2022/08/19 06:36:33;;;;;;;24.33;22.00;;;20.10;99.90;;;;;;5087734;28;20627;-80
2022/08/19 06:39:02;;;;;;;29.20;26.80;;;20.10;99.90;;;;;;5090050;28;20620;-81
2022/08/19 06:41:31;;;;;;;28.93;26.53;;;20.10;99.90;;;;;;5090389;28;21291;-80
2022/08/19 06:43:58;;;;;;;29.43;27.13;;;20.10;99.90;;;;;;5084871;28;20998;-81
2022/08/19 06:46:26;;;;;;;28.03;25.80;;;20.10;99.90;;;;;;5092285;28;21122;-80
2022/08/19 06:48:54;;;;;;;23.63;21.43;;;20.10;99.90;;;;;;5088925;28;20632;-80
2022/08/19 06:51:23;;;;;;;22.73;20.63;;;20.10;99.90;;;;;;5094283;28;20654;-80
2022/08/19 06:53:54;;;;;;;25.47;22.83;;;20.10;99.90;;;;;;5090661;28;20634;-81
2022/08/19 06:56:24;;;;;;;23.23;20.90;;;20.20;99.90;;;;;;5091012;28;20630;-80
2022/08/19 06:58:52;;;;;;;24.60;21.97;;;20.20;99.90;;;;;;5091629;28;20640;-80
2022/08/19 07:01:20;;;;;;;23.43;20.93;;;20.20;99.90;;;;;;5089873;28;20652;-80
2022/08/19 07:03:47;;;;;;;25.77;22.50;;;20.20;99.90;;;;;;5091655;28;21181;-80
2022/08/19 07:06:17;;;;;;;25.20;22.80;;;20.20;99.90;;;;;;5091184;28;20642;-79
2022/08/19 07:08:46;;;;;;;24.37;21.87;;;20.20;99.90;;;;;;5085650;28;21004;-80
2022/08/19 07:11:14;;;;;;;27.07;22.30;;;20.30;99.90;;;;;;5085892;28;20656;-80
2022/08/19 07:13:43;;;;;;;24.67;21.80;;;20.30;99.90;;;;;;5083607;28;20642;-80
2022/08/19 07:16:15;;;;;;;26.23;23.53;;;20.20;99.90;;;;;;5084680;28;20615;-80
2022/08/19 07:18:44;;;;;;;23.93;21.60;;;20.20;99.90;;;;;;5083085;28;20646;-81
2022/08/19 07:21:15;;;;;;;28.70;26.30;;;20.20;99.90;;;;;;5079960;28;20662;-80
2022/08/19 07:23:42;;;;;;;30.40;27.70;;;20.20;99.90;;;;;;5083336;28;20646;-80
2022/08/19 07:26:12;;;;;;;29.10;26.70;;;20.20;99.90;;;;;;5086757;28;20624;-80
2022/08/19 07:28:39;;;;;;;24.90;22.40;;;20.20;99.90;;;;;;5084510;28;20608;-80
2022/08/19 07:31:07;;;;;;;30.97;22.30;;;20.20;99.90;;;;;;5087683;28;20677;-80
2022/08/19 07:33:36;;;;;;;28.73;22.83;;;20.20;99.90;;;;;;5086688;28;21455;-80
2022/08/19 07:36:04;;;;;;;26.17;23.70;;;20.20;99.90;;;;;;5082773;28;21002;-81
2022/08/19 07:38:31;;;;;;;26.53;23.73;;;20.20;99.90;;;;;;5087378;28;20719;-79
2022/08/19 07:40:58;;;;;;;23.33;21.07;;;20.20;99.90;;;;;;5079957;28;20721;-81
2022/08/19 07:43:26;;;;;;;29.83;27.43;;;20.20;99.90;;;;;;5086570;28;20690;-81
2022/08/19 07:45:55;;;;;;;30.80;28.10;;;20.20;99.90;;;;;;5086873;28;20628;-80
2022/08/19 07:48:25;;;;;;;30.60;27.63;;;20.20;99.90;;;;;;5084927;28;20736;-80
2022/08/19 07:50:55;;;;;;;29.40;26.70;;;20.20;99.90;;;;;;5089036;28;21261;-80
2022/08/19 07:53:22;;;;;;;24.53;22.33;;;20.30;99.90;;;;;;5084898;28;20633;-80
2022/08/19 07:55:49;;;;;;;30.03;27.13;;;20.30;99.90;;;;;;5089224;28;20654;-81
2022/08/19 07:58:20;;;;;;;24.13;21.73;;;20.30;99.90;;;;;;5090730;28;20620;-80
2022/08/19 08:00:49;;;;;;;28.53;26.20;;;20.30;99.90;;;;;;5085640;28;20631;-80
2022/08/19 08:03:19;;;;;;;22.97;20.77;;;20.30;99.90;;;;;;5091586;28;21356;-81
2022/08/19 08:11:21;;;;;;;23.97;20.20;;;20.40;99.90;;;;;;5089678;28;21166;-81
2022/08/19 08:13:49;;;;;;;24.97;22.53;;;20.40;99.90;;;;;;5085613;28;20656;-80
2022/08/19 08:16:16;;;;;;;28.03;25.83;;;20.40;99.90;;;;;;5085408;28;20628;-80
2022/08/19 08:18:43;;;;;;;29.57;26.90;;;20.30;99.90;;;;;;5092184;28;20686;-81
2022/08/19 08:21:10;;;;;;;23.87;21.47;;;20.40;99.90;;;;;;5086974;28;21171;-80
2022/08/19 08:23:38;;;;;;;22.20;20.00;;;20.30;99.90;;;;;;5087506;28;20672;-80
2022/08/19 08:26:05;;;;;;;21.93;19.80;;;20.40;99.90;;;;;;5086241;28;20624;-80
2022/08/19 08:28:32;;;;;;;29.40;27.00;;;20.30;99.90;;;;;;5083889;28;20654;-81
2022/08/19 08:31:00;;;;;;;27.33;25.23;;;20.40;99.90;;;;;;5086208;28;20624;-80
2022/08/19 08:33:29;;;;;;;26.37;24.17;;;20.40;99.90;;;;;;5085360;28;20620;-81
2022/08/19 08:35:56;;;;;;;28.53;26.03;;;20.40;99.90;;;;;;5086117;28;20721;-80
2022/08/19 08:38:24;;;;;;;26.60;24.20;;;20.30;99.90;;;;;;5086831;28;21186;-81
2022/08/19 08:41:02;;;;;;;23.90;21.30;;;20.40;99.90;;;;;;5086491;28;20719;-81
2022/08/19 08:43:32;;;;;;;21.63;19.77;;;20.40;99.90;;;;;;5083389;28;20670;-81
2022/08/19 08:46:03;;;;;;;22.73;20.43;;;20.50;99.90;;;;;;5084363;28;20696;-81
2022/08/19 08:48:39;;;;;;;21.53;19.53;;;20.50;99.90;;;;;;5083960;28;20627;-81
2022/08/19 08:51:12;;;;;;;21.27;19.03;;;20.50;99.90;;;;;;5080479;28;20616;-81
2022/08/19 08:53:40;;;;;;;20.17;18.17;;;20.60;99.90;;;;;;5085426;28;20616;-81
2022/08/19 08:56:12;;;;;;;20.77;18.57;;;20.60;99.90;;;;;;5086218;28;20639;-81
2022/08/19 08:58:51;;;;;;;22.83;18.53;;;20.70;99.90;;;;;;5086904;28;20608;-81
2022/08/19 09:01:19;;;;;;;20.40;18.30;;;20.80;99.90;;;;;;5082546;28;20616;-81
2022/08/19 09:03:46;;;;;;;21.40;19.20;;;20.70;99.90;;;;;;5090618;28;20667;-81
2022/08/19 09:06:19;;;;;;;22.77;20.67;;;20.80;99.90;;;;;;5087076;28;20689;-81
2022/08/19 09:08:53;;;;;;;20.10;18.07;;;20.70;99.90;;;;;;5083273;28;20632;-81
2022/08/19 09:11:34;;;;;;;19.80;17.27;;;20.80;99.90;;;;;;5088500;28;20639;-81
2022/08/19 09:14:15;;;;;;;20.57;18.73;;;20.80;99.90;;;;;;5086985;28;20674;-81
2022/08/19 09:16:42;;;;;;;26.70;24.30;;;20.80;99.90;;;;;;5085472;28;20651;-81
2022/08/19 09:19:10;;;;;;;25.80;23.73;;;20.80;99.90;;;;;;5088287;28;20612;-81
2022/08/19 09:21:38;;;;;;;25.73;23.70;;;20.80;99.90;;;;;;5085051;28;20632;-81
2022/08/19 09:24:06;;;;;;;24.10;22.00;;;20.90;99.90;;;;;;5088664;28;21450;-81
2022/08/19 09:26:34;;;;;;;19.50;17.70;;;20.80;99.90;;;;;;5083309;28;21178;-81
2022/08/19 09:29:04;;;;;;;21.53;19.27;;;20.80;99.90;;;;;;5087841;28;20712;-81
2022/08/19 09:31:32;;;;;;;22.33;19.17;;;20.80;99.90;;;;;;5086811;28;20637;-81
2022/08/19 09:34:00;;;;;;;20.13;18.27;;;20.80;99.90;;;;;;5088629;28;20653;-81
2022/08/19 09:36:32;;;;;;;21.27;19.27;;;20.80;99.90;;;;;;5087953;28;21284;-80
2022/08/19 09:39:00;;;;;;;21.80;19.60;;;20.80;99.90;;;;;;5088023;28;20623;-81
2022/08/19 09:41:27;;;;;;;22.73;17.87;;;20.80;99.90;;;;;;5089487;28;20644;-81
2022/08/19 09:43:59;;;;;;;20.80;18.90;;;20.80;99.90;;;;;;5088365;28;20670;-81
2022/08/19 09:46:28;;;;;;;20.80;18.83;;;20.90;99.90;;;;;;5086910;28;20664;-80
2022/08/19 09:48:58;;;;;;;22.23;20.13;;;20.90;99.90;;;;;;5088501;28;20632;-82
2022/08/19 09:51:28;;;;;;;19.23;17.23;;;20.90;99.90;;;;;;5089337;28;20632;-81
2022/08/19 09:53:57;;;;;;;21.67;19.67;;;21.00;99.90;;;;;;5090563;28;20627;-81
2022/08/19 09:56:23;;;;;;;21.13;18.90;;;21.00;99.90;;;;;;5085611;28;20654;-81
2022/08/19 09:58:51;;;;;;;21.30;18.60;;;21.00;99.90;;;;;;5098874;28;20628;-82
2022/08/19 10:01:23;;;;;;;23.03;18.57;;;21.10;99.90;;;;;;5089571;28;20695;-81
2022/08/19 10:03:53;;;;;;;21.40;19.10;;;21.10;99.90;;;;;;5086523;28;20652;-82
2022/08/19 10:06:20;;;;;;;21.20;19.33;;;21.10;99.90;;;;;;5087440;28;20660;-81
2022/08/19 10:08:47;;;;;;;21.23;19.13;;;21.10;99.90;;;;;;5085278;28;20642;-81
2022/08/19 10:11:16;;;;;;;18.83;17.00;;;21.10;99.90;;;;;;5089213;28;20997;-81
2022/08/19 10:13:44;;;;;;;24.27;22.20;;;21.10;99.90;;;;;;5083395;28;20624;-82
2022/08/19 10:16:13;;;;;;;23.50;21.50;;;21.20;99.90;;;;;;5082950;28;20608;-82
2022/08/19 10:18:43;;;;;;;19.40;17.60;;;21.20;99.90;;;;;;5087151;28;20628;-82
2022/08/19 10:21:11;;;;;;;24.00;21.50;;;21.20;99.90;;;;;;5087489;28;20608;-81
2022/08/19 10:23:39;;;;;;;24.77;22.40;;;21.20;99.90;;;;;;5089920;28;20668;-81
2022/08/19 10:26:07;;;;;;;24.40;22.30;;;21.30;99.90;;;;;;5083745;28;20680;-81
2022/08/19 10:28:36;;;;;;;25.43;23.43;;;21.20;99.90;;;;;;5088947;28;20646;-81
2022/08/19 10:31:06;;;;;;;26.00;23.80;;;21.20;99.90;;;;;;5085856;28;20632;-81
2022/08/19 10:33:34;;;;;;;21.07;18.77;;;21.10;99.90;;;;;;5088314;28;20628;-81
2022/08/19 10:36:04;;;;;;;21.50;19.50;;;21.10;99.90;;;;;;5086852;28;20636;-81
2022/08/19 10:38:31;;;;;;;25.23;17.50;;;21.10;99.90;;;;;;5080652;28;20623;-81
2022/08/19 10:41:06;;;;;;;22.83;18.73;;;21.10;99.90;;;;;;5089400;28;20608;-81
2022/08/19 10:43:34;;;;;;;19.00;17.30;;;21.10;99.90;;;;;;5089742;28;20653;-81
2022/08/19 10:46:01;;;;;;;20.97;18.93;;;21.20;99.90;;;;;;5088909;28;20677;-81
2022/08/19 10:48:28;;;;;;;19.77;17.87;;;21.20;99.90;;;;;;5088751;28;20627;-81
2022/08/19 10:53:37;;;;;;;21.70;19.90;;;21.20;99.90;;;;;;5051648;28;20623;-81
2022/08/19 10:58:48;;;;;;;20.10;17.93;;;21.30;99.90;;;;;;5085580;28;20599;-81
2022/08/19 11:01:15;;;;;;;20.17;18.37;;;21.30;99.90;;;;;;5088124;28;21561;-81
2022/08/19 11:03:45;;;;;;;21.50;19.40;;;21.30;99.90;;;;;;5088236;28;20644;-81
2022/08/19 11:06:12;;;;;;;21.00;18.87;;;21.20;99.90;;;;;;5085590;28;20654;-81
2022/08/19 11:08:45;;;;;;;22.43;20.07;;;21.20;99.90;;;;;;5082822;28;21566;-81
2022/08/19 11:11:12;;;;;;;20.80;18.60;;;21.20;99.90;;;;;;5085555;28;20635;-81
2022/08/19 11:13:42;;;;;;;22.20;20.10;;;21.10;99.90;;;;;;5088184;28;20971;-81
2022/08/19 11:16:14;;;;;;;22.33;20.33;;;21.00;99.90;;;;;;5085109;28;20644;-81
2022/08/19 11:18:44;;;;;;;23.13;20.90;;;21.00;99.90;;;;;;5083056;28;20631;-81
2022/08/19 11:21:16;;;;;;;24.57;21.97;;;20.90;99.90;;;;;;5084617;28;20647;-81
2022/08/19 11:23:46;;;;;;;20.77;18.80;;;20.80;99.90;;;;;;5088295;28;20731;-81
2022/08/19 11:26:14;;;;;;;28.87;26.57;;;20.80;99.90;;;;;;5079664;28;21337;-81
2022/08/19 11:28:41;;;;;;;27.07;25.00;;;20.70;99.90;;;;;;5082528;28;20650;-81
2022/08/19 11:31:11;;;;;;;22.87;20.53;;;20.70;99.90;;;;;;5087480;28;20731;-81
2022/08/19 11:33:38;;;;;;;23.10;20.90;;;20.70;99.90;;;;;;5079200;28;20723;-81
2022/08/19 11:36:05;;;;;;;22.53;20.53;;;20.70;99.90;;;;;;5080027;28;20651;-81
2022/08/19 11:38:33;;;;;;;24.67;22.47;;;20.60;99.90;;;;;;5083690;28;20628;-81
2022/08/19 11:41:04;;;;;;;31.53;28.97;;;20.60;99.90;;;;;;5088349;28;20632;-81
2022/08/19 11:43:31;;;;;;;25.30;22.67;;;20.50;99.90;;;;;;5078469;28;20669;-81
2022/08/19 11:45:59;;;;;;;26.03;23.67;;;20.60;99.90;;;;;;5086745;28;20627;-81
2022/08/19 11:48:26;;;;;;;31.97;29.27;;;20.50;99.90;;;;;;5085855;28;20623;-80
2022/08/19 11:50:55;;;;;;;23.67;21.37;;;20.50;99.90;;;;;;5088454;28;20632;-81
2022/08/19 11:53:22;;;;;;;25.13;22.67;;;20.60;99.90;;;;;;5086786;28;21502;-81
2022/08/19 11:55:49;;;;;;;24.27;21.97;;;20.70;99.90;;;;;;5087490;28;20615;-81
2022/08/19 11:58:18;;;;;;;25.13;22.67;;;20.70;99.90;;;;;;5088002;28;20662;-83
2022/08/19 12:00:45;;;;;;;21.70;19.43;;;20.70;99.90;;;;;;5087916;28;20955;-81
2022/08/19 12:03:13;;;;;;;22.60;20.30;;;20.80;99.90;;;;;;5079789;28;20672;-81
2022/08/19 12:05:41;;;;;;;22.30;20.40;;;20.90;99.90;;;;;;5080479;28;20628;-83
2022/08/19 12:08:08;;;;;;;30.27;27.80;;;20.80;99.90;;;;;;5087047;28;20656;-81
2022/08/19 12:10:36;;;;;;;26.17;23.63;;;20.90;99.90;;;;;;5085116;28;20682;-82
2022/08/19 12:13:03;;;;;;;24.37;22.20;;;20.90;99.90;;;;;;5094821;28;20617;-81
2022/08/19 12:15:36;;;;;;;25.07;22.37;;;20.90;99.90;;;;;;5083642;28;20863;-81
2022/08/19 12:18:03;;;;;;;22.87;20.70;;;20.90;99.90;;;;;;5082444;28;20648;-81
2022/08/19 12:20:30;;;;;;;25.50;23.10;;;21.00;99.90;;;;;;5085135;28;20636;-81
2022/08/19 12:22:57;;;;;;;24.93;22.33;;;21.00;99.90;;;;;;5088810;28;20727;-81
2022/08/19 12:25:23;;;;;;;25.33;22.93;;;21.00;99.90;;;;;;5078733;28;20640;-81
2022/08/19 12:27:50;;;;;;;24.73;22.40;;;21.00;99.90;;;;;;5079284;28;20650;-82
2022/08/19 12:30:17;;;;;;;31.40;28.90;;;21.00;99.90;;;;;;5086156;28;20627;-81
2022/08/19 12:32:45;;;;;;;33.10;30.47;;;21.00;99.90;;;;;;5086861;28;20723;-81
2022/08/19 12:35:12;;;;;;;32.53;29.97;;;21.00;99.90;;;;;;5078640;28;21081;-81
2022/08/19 12:37:44;;;;;;;26.23;23.63;;;20.90;99.90;;;;;;5082786;28;20648;-81
2022/08/19 12:40:12;;;;;;;31.93;29.53;;;20.80;99.90;;;;;;5083727;28;20623;-81
2022/08/19 12:42:41;;;;;;;32.40;29.63;;;20.90;99.90;;;;;;5082109;28;20655;-81
2022/08/19 12:45:09;;;;;;;27.07;24.17;;;20.80;99.90;;;;;;5082188;28;20682;-81
2022/08/19 12:47:36;;;;;;;26.70;24.00;;;20.90;99.90;;;;;;5082388;28;20691;-80
2022/08/19 12:50:08;;;;;;;25.17;21.60;;;20.90;99.90;;;;;;5081535;28;20624;-80
2022/08/19 12:52:37;;;;;;;25.77;23.27;;;20.80;99.90;;;;;;5080406;28;21081;-80
2022/08/19 12:55:06;;;;;;;31.40;28.90;;;20.90;99.90;;;;;;5081613;28;20636;-81
2022/08/19 12:57:35;;;;;;;32.20;29.67;;;20.90;99.90;;;;;;5083276;28;20663;-81